createdAt,value
2019-05-02T00:27:47.038Z,5.63
2019-05-02T00:30:15.371Z,5.13
2019-05-02T00:32:43.345Z,5.57
2019-05-02T00:35:14.206Z,5.47
2019-05-02T00:37:41.832Z,5.07
2019-05-02T00:40:09.607Z,6.43
2019-05-02T00:42:37.289Z,5.40
2019-05-02T00:45:05.848Z,5.60
2019-05-02T00:47:52.894Z,5.37
2019-05-02T00:50:21.728Z,5.23
2019-05-02T00:52:49.804Z,5.17
2019-05-02T00:55:17.550Z,5.43
2019-05-02T00:57:45.269Z,8.20
2019-05-02T01:00:18.196Z,7.93
2019-05-02T01:02:48.782Z,5.13
2019-05-02T01:05:16.431Z,5.27
2019-05-02T01:07:44.044Z,6.50
2019-05-02T01:10:11.860Z,6.13
2019-05-02T01:12:40.045Z,6.17
2019-05-02T01:15:09.711Z,7.37
2019-05-02T01:17:37.433Z,5.63
2019-05-02T01:20:05.990Z,6.77
2019-05-02T01:22:33.669Z,5.83
2019-05-02T01:25:01.327Z,5.03
2019-05-02T01:27:41.087Z,7.50
2019-05-02T01:30:37.276Z,6.30
2019-05-02T01:33:31.579Z,5.00
2019-05-02T01:36:06.443Z,5.60
2019-05-02T01:38:40.828Z,4.83
2019-05-02T01:41:08.462Z,4.97
2019-05-02T01:43:36.115Z,6.27
2019-05-02T01:46:03.905Z,5.70
2019-05-02T01:48:31.529Z,7.27
2019-05-02T01:50:59.364Z,8.47
2019-05-02T01:53:29.381Z,4.87
2019-05-02T01:55:57.567Z,7.07
2019-05-02T01:58:26.030Z,6.53
2019-05-02T02:00:53.872Z,5.50
2019-05-02T02:03:21.725Z,4.73
2019-05-02T02:05:49.488Z,5.47
2019-05-02T02:08:17.305Z,7.57
2019-05-02T02:10:44.971Z,6.17
2019-05-02T02:13:12.726Z,6.87
2019-05-02T02:15:40.559Z,6.07
2019-05-02T02:18:08.240Z,6.03
2019-05-02T02:20:45.165Z,4.60
2019-05-02T02:23:44.954Z,4.93
2019-05-02T02:26:13.715Z,7.20
2019-05-02T02:28:41.504Z,5.93
2019-05-02T02:31:09.308Z,5.07
2019-05-02T02:33:40.995Z,5.87
2019-05-02T02:36:06.471Z,4.90
2019-05-02T02:38:35.409Z,6.97
2019-05-02T02:41:06.480Z,9.00
2019-05-02T02:43:34.850Z,5.63
2019-05-02T02:46:18.657Z,7.63
2019-05-02T02:48:46.343Z,6.37
2019-05-02T02:51:22.121Z,6.20
2019-05-02T02:53:43.594Z,7.03
2019-05-02T02:56:11.419Z,6.63
2019-05-02T02:58:45.721Z,5.13
2019-05-02T03:01:08.718Z,5.63
2019-05-02T03:03:36.440Z,6.93
2019-05-02T03:06:05.872Z,7.47
2019-05-02T03:08:45.142Z,4.80
2019-05-02T03:11:03.670Z,7.23
2019-05-02T03:13:53.673Z,8.57
2019-05-02T03:16:21.465Z,8.07
2019-05-02T03:18:49.056Z,7.53
2019-05-02T03:21:20.153Z,7.17
2019-05-02T03:23:46.327Z,6.53
2019-05-02T03:26:15.422Z,8.40
2019-05-02T03:28:43.342Z,6.50
2019-05-02T03:31:22.940Z,7.57
2019-05-02T03:33:54.690Z,6.77
2019-05-02T03:36:25.938Z,7.17
2019-05-02T03:38:41.133Z,9.20
2019-05-02T03:41:13.517Z,10.57
2019-05-02T03:43:38.380Z,10.33
2019-05-02T03:46:06.126Z,9.97
2019-05-02T03:48:34.024Z,8.30
2019-05-02T03:51:05.054Z,9.43
2019-05-02T03:53:32.049Z,8.13
2019-05-02T03:56:10.681Z,9.67
2019-05-02T03:58:30.473Z,8.60
2019-05-02T04:01:01.531Z,8.63
2019-05-02T04:03:33.932Z,7.93
2019-05-02T04:05:57.702Z,9.60
2019-05-02T04:08:25.549Z,10.13
2019-05-02T04:11:20.250Z,6.63
2019-05-02T04:13:50.242Z,8.70
2019-05-02T04:16:18.167Z,10.07
2019-05-02T04:18:54.405Z,7.23
2019-05-02T04:21:22.135Z,9.83
2019-05-02T04:23:47.206Z,10.77
2019-05-02T04:26:15.783Z,10.17
2019-05-02T04:28:45.620Z,9.40
2019-05-02T04:31:13.416Z,8.63
2019-05-02T04:33:41.249Z,9.73
2019-05-02T04:36:15.846Z,9.27
2019-05-02T04:38:44.402Z,9.10
2019-05-02T04:41:09.297Z,7.83
2019-05-02T04:43:40.632Z,8.87
2019-05-02T04:46:09.329Z,8.23
2019-05-02T04:48:43.798Z,6.13
2019-05-02T04:51:10.423Z,8.77
2019-05-02T04:53:41.038Z,9.50
2019-05-02T04:56:07.735Z,9.67
2019-05-02T04:58:37.041Z,8.80
2019-05-02T05:01:03.589Z,8.47
2019-05-02T05:03:31.148Z,9.27
2019-05-02T05:06:06.810Z,8.23
2019-05-02T05:08:31.946Z,6.10
2019-05-02T05:10:57.894Z,7.87
2019-05-02T05:13:26.474Z,8.27
2019-05-02T05:15:54.344Z,6.07
2019-05-02T05:18:22.647Z,5.87
2019-05-02T05:20:52.972Z,6.77
2019-05-02T05:23:42.222Z,5.53
2019-05-02T05:26:09.893Z,6.70
2019-05-02T05:28:40.565Z,6.27
2019-05-02T05:31:07.794Z,7.60
2019-05-02T05:33:37.627Z,5.77
2019-05-02T05:36:04.940Z,6.63
2019-05-02T05:38:34.425Z,6.23
2019-05-02T05:41:03.045Z,6.20
2019-05-02T05:43:31.447Z,5.53
2019-05-02T05:46:09.092Z,6.00
2019-05-02T05:48:32.014Z,5.27
2019-05-02T05:50:58.598Z,5.37
2019-05-02T05:53:28.089Z,5.20
2019-05-02T05:55:58.978Z,7.03
2019-05-02T05:58:25.293Z,6.33
2019-05-02T06:00:55.692Z,5.43
2019-05-02T06:03:23.682Z,6.30
2019-05-02T06:05:51.682Z,5.40
2019-05-02T06:08:19.963Z,8.30
2019-05-02T06:10:47.895Z,4.70
2019-05-02T06:13:15.512Z,7.87
2019-05-02T06:15:45.833Z,5.67
2019-05-02T06:18:12.490Z,5.73
2019-05-02T06:20:40.189Z,4.33
2019-05-02T06:23:08.076Z,5.53
2019-05-02T06:25:36.993Z,5.17
2019-05-02T06:28:06.609Z,6.80
2019-05-02T06:30:34.484Z,4.10
2019-05-02T06:59:31.966Z,6.43
2019-05-02T07:02:18.299Z,5.33
2019-05-02T07:04:45.967Z,5.20
2019-05-02T07:07:13.797Z,4.53
2019-05-02T07:09:41.893Z,6.00
2019-05-02T07:12:14.251Z,4.27
2019-05-02T07:14:39.165Z,6.10
2019-05-02T07:17:26.799Z,5.37
2019-05-02T07:19:58.888Z,5.97
2019-05-02T07:22:26.449Z,6.10
2019-05-02T07:24:53.992Z,4.33
2019-05-02T07:27:28.389Z,3.87
2019-05-02T07:33:45.667Z,4.23
2019-05-02T07:38:45.124Z,3.93
2019-05-02T07:41:12.726Z,4.10
2019-05-02T07:43:40.287Z,3.73
2019-05-02T07:46:07.895Z,3.40
2019-05-02T07:48:35.566Z,4.30
2019-05-02T07:51:03.846Z,4.67
2019-05-02T07:53:32.752Z,4.63
2019-05-02T07:56:00.779Z,4.63
2019-05-02T07:58:28.796Z,2.30
2019-05-02T08:00:56.429Z,4.17
2019-05-02T08:03:24.004Z,4.77
2019-05-02T08:05:54.439Z,3.23
2019-05-02T08:08:24.961Z,3.03
2019-05-02T08:11:01.352Z,4.63
2019-05-02T08:13:23.316Z,3.53
2019-05-02T08:15:52.329Z,5.13
2019-05-02T08:18:19.965Z,4.43
2019-05-02T08:20:51.104Z,2.53
2019-05-02T08:23:20.608Z,2.83
2019-05-02T08:25:46.583Z,2.80
2019-05-02T08:28:22.127Z,2.77
2019-05-02T08:30:53.555Z,3.03
2019-05-02T08:33:21.201Z,4.80
2019-05-02T08:35:48.764Z,3.90
2019-05-02T08:38:17.871Z,6.03
2019-05-02T08:40:48.002Z,4.53
2019-05-02T08:43:15.268Z,4.27
2019-05-02T08:45:42.838Z,5.00
2019-05-02T08:48:10.412Z,4.00
2019-05-02T08:50:38.944Z,4.40
2019-05-02T08:53:06.505Z,7.03
2019-05-02T08:55:34.101Z,6.47
2019-05-02T08:58:06.053Z,3.83
2019-05-02T09:00:32.136Z,6.80
2019-05-02T09:03:02.529Z,3.97
2019-05-02T09:05:29.866Z,6.70
2019-05-02T09:07:57.422Z,3.17
2019-05-02T09:10:25.002Z,6.13
2019-05-02T09:12:52.575Z,5.37
2019-05-02T09:15:22.199Z,3.83
2019-05-02T09:17:52.800Z,5.70
2019-05-02T09:20:20.956Z,3.17
2019-05-02T09:22:52.101Z,5.13
2019-05-02T09:25:17.909Z,5.77
2019-05-02T09:27:45.574Z,4.47
2019-05-02T09:30:17.252Z,4.37
2019-05-02T09:32:43.417Z,4.53
2019-05-02T09:35:11.830Z,3.90
2019-05-02T09:37:39.401Z,4.57
2019-05-02T09:40:11.632Z,2.80
2019-05-02T09:42:36.402Z,4.10
2019-05-02T09:45:04.817Z,4.07
2019-05-02T09:47:41.545Z,2.90
2019-05-02T09:50:14.228Z,5.73
2019-05-02T09:52:44.173Z,5.70
2019-05-02T09:55:12.881Z,3.33
2019-05-02T09:57:44.312Z,4.30
2019-05-02T10:00:32.159Z,4.30
2019-05-02T10:03:00.253Z,3.60
2019-05-02T10:05:35.144Z,3.30
2019-05-02T10:08:06.896Z,5.10
2019-05-02T10:10:37.237Z,3.60
2019-05-02T10:13:04.682Z,4.67
2019-05-02T10:15:32.844Z,4.27
2019-05-02T10:18:08.830Z,3.07
2019-05-02T10:20:31.811Z,3.57
2019-05-02T10:22:59.282Z,3.13
2019-05-02T10:25:32.753Z,3.60
2019-05-02T10:27:56.175Z,5.07
2019-05-02T10:30:25.630Z,2.87
2019-05-02T10:32:57.267Z,6.60
2019-05-02T10:35:28.164Z,3.27
2019-05-02T10:37:54.782Z,4.63
2019-05-02T10:40:22.583Z,3.00
2019-05-02T10:42:52.078Z,3.60
2019-05-02T10:45:19.793Z,2.60
2019-05-02T10:47:47.300Z,4.17
2019-05-02T10:50:22.265Z,3.10
2019-05-02T10:52:49.788Z,1.67
2019-05-02T10:55:17.547Z,3.57
2019-05-02T10:57:45.140Z,2.47
2019-05-02T11:00:15.066Z,2.93
2019-05-02T11:03:02.553Z,3.73
2019-05-02T11:05:31.561Z,2.80
2019-05-02T11:08:04.822Z,4.30
2019-05-02T11:10:28.687Z,3.07
2019-05-02T11:13:05.309Z,3.30
2019-05-02T11:15:52.377Z,3.30
2019-05-02T11:18:39.183Z,3.17
2019-05-02T11:20:52.893Z,3.73
2019-05-02T11:23:22.099Z,3.90
2019-05-02T11:25:49.784Z,4.80
2019-05-02T11:28:18.759Z,2.33
2019-05-02T11:30:46.299Z,2.60
2019-05-02T11:33:14.018Z,2.70
2019-05-02T11:35:48.793Z,2.90
2019-05-02T11:38:13.479Z,3.27
2019-05-02T11:40:42.154Z,4.23
2019-05-02T11:43:11.589Z,2.30
2019-05-02T11:45:39.274Z,2.57
2019-05-02T11:48:11.924Z,3.47
2019-05-02T11:50:39.359Z,3.93
2019-05-02T11:53:09.231Z,3.90
2019-05-02T11:55:36.460Z,4.07
2019-05-02T11:58:08.280Z,2.50
2019-05-02T12:00:33.599Z,3.73
2019-05-02T12:03:18.836Z,2.67
2019-05-02T12:05:46.490Z,3.40
2019-05-02T12:08:14.040Z,2.37
2019-05-02T12:10:42.257Z,3.70
2019-05-02T12:13:16.001Z,3.50
2019-05-02T12:15:44.275Z,2.57
2019-05-02T12:18:12.130Z,1.73
2019-05-02T12:20:39.695Z,3.67
2019-05-02T12:23:09.135Z,2.07
2019-05-02T12:25:36.671Z,4.80
2019-05-02T12:28:04.484Z,2.60
2019-05-02T12:30:34.170Z,3.77
2019-05-02T12:33:02.553Z,3.30
2019-05-02T12:35:32.211Z,3.70
2019-05-02T12:38:00.096Z,2.13
2019-05-02T12:40:28.030Z,3.57
2019-05-02T12:42:55.776Z,2.70
2019-05-02T12:45:23.692Z,3.63
2019-05-02T12:47:52.323Z,3.40
2019-05-02T12:50:20.188Z,2.83
2019-05-02T12:52:48.167Z,2.97
2019-05-02T12:55:22.066Z,2.97
2019-05-02T12:57:52.826Z,2.63
2019-05-02T13:00:22.326Z,3.97
2019-05-02T13:32:56.122Z,2.90
2019-05-02T13:35:42.081Z,4.87
2019-05-02T13:38:09.817Z,2.50
2019-05-02T13:40:44.761Z,3.77
2019-05-02T13:43:12.785Z,3.60
2019-05-02T13:46:06.579Z,5.13
2019-05-02T13:48:34.431Z,3.13
2019-05-02T13:51:03.928Z,3.53
2019-05-02T13:53:32.258Z,3.83
2019-05-02T13:56:17.946Z,4.97
2019-05-02T13:58:54.490Z,2.80
2019-05-02T14:01:22.595Z,2.37
2019-05-02T14:03:53.551Z,3.67
2019-05-02T14:06:22.028Z,2.70
2019-05-02T14:09:07.888Z,2.90
2019-05-02T14:11:45.983Z,2.97
2019-05-02T14:14:14.430Z,1.83
2019-05-02T14:16:42.072Z,3.07
2019-05-02T14:19:09.720Z,3.40
2019-05-02T14:21:37.498Z,4.17
2019-05-02T14:24:05.200Z,1.63
2019-05-02T14:26:33.276Z,2.30
2019-05-02T14:29:02.564Z,3.63
2019-05-02T14:31:32.223Z,2.10
2019-05-02T14:34:17.536Z,5.07
2019-05-02T14:36:45.312Z,1.90
2019-05-02T14:39:12.987Z,2.57
2019-05-02T14:41:44.421Z,2.90
2019-05-02T14:44:11.894Z,2.90
2019-05-02T14:46:39.963Z,1.77
2019-05-02T14:49:07.796Z,2.03
2019-05-02T14:51:36.757Z,1.83
2019-05-02T14:54:08.252Z,2.37
2019-05-02T14:57:01.990Z,2.43
2019-05-02T14:59:29.794Z,2.47
2019-05-02T15:02:05.727Z,3.60
2019-05-02T15:04:29.206Z,2.47
2019-05-02T15:06:56.863Z,2.10
2019-05-02T15:09:26.732Z,2.53
2019-05-02T15:12:02.683Z,2.60
2019-05-02T15:14:32.895Z,1.90
2019-05-02T15:17:02.559Z,2.90
2019-05-02T15:19:32.688Z,2.50
2019-05-02T15:22:01.963Z,2.27
2019-05-02T15:24:33.198Z,4.63
2019-05-02T15:27:03.647Z,2.77
2019-05-02T15:29:28.820Z,3.53
2019-05-02T15:32:13.421Z,3.27
2019-05-02T15:34:58.884Z,2.97
2019-05-02T15:37:27.279Z,2.20
2019-05-02T15:42:25.784Z,2.70
2019-05-02T15:44:57.118Z,2.73
2019-05-02T15:47:23.008Z,3.23
2019-05-02T15:49:52.660Z,3.20
2019-05-02T15:52:27.757Z,2.20
2019-05-02T15:54:59.939Z,4.37
2019-05-02T15:57:24.869Z,3.90
2019-05-02T15:59:52.868Z,6.13
2019-05-02T16:02:22.902Z,4.73
2019-05-02T16:04:52.234Z,1.97
2019-05-02T16:07:20.079Z,2.43
2019-05-02T16:09:51.588Z,1.87
2019-05-02T16:12:17.191Z,2.10
2019-05-02T16:14:44.871Z,4.53
2019-05-02T16:17:17.589Z,2.70
2019-05-02T16:19:47.359Z,2.97
2019-05-02T16:22:16.599Z,2.83
2019-05-02T16:24:48.814Z,2.07
2019-05-02T16:27:16.544Z,3.03
2019-05-02T16:29:43.412Z,2.77
2019-05-02T16:32:35.148Z,2.43
2019-05-02T16:35:07.597Z,2.50
2019-05-02T16:37:32.560Z,2.77
2019-05-02T16:40:02.526Z,4.43
2019-05-02T16:42:30.438Z,4.10
2019-05-02T16:44:58.541Z,3.80
2019-05-02T16:47:28.154Z,5.37
2019-05-02T16:49:56.552Z,3.83
2019-05-02T16:52:24.359Z,3.33
2019-05-02T16:54:52.644Z,3.23
2019-05-02T16:57:22.228Z,2.30
2019-05-02T16:59:53.973Z,3.20
2019-05-02T17:02:21.712Z,3.40
2019-05-02T17:04:49.208Z,3.33
2019-05-02T17:07:26.221Z,3.40
2019-05-02T17:10:08.297Z,3.40
2019-05-02T18:58:06.313Z,4.83
2019-05-02T19:00:38.198Z,4.03
2019-05-02T19:03:07.463Z,5.47
2019-05-02T19:05:34.521Z,10.87
2019-05-02T19:08:02.622Z,13.17
2019-05-02T19:10:32.224Z,9.67
2019-05-02T19:13:05.934Z,7.03
2019-05-02T19:39:57.201Z,4.17
2019-05-02T19:42:26.223Z,5.37
2019-05-02T21:01:53.121Z,6.33
2019-05-02T21:04:22.691Z,3.93
2019-05-02T21:06:56.978Z,4.97
2019-05-02T21:09:52.466Z,3.30
2019-05-02T21:12:22.905Z,6.20
2019-05-02T21:14:52.323Z,2.87
2019-05-02T21:17:22.108Z,3.87
2019-05-02T21:19:55.062Z,4.27
2019-05-02T21:22:29.562Z,4.03
2019-05-02T21:25:02.451Z,3.30
2019-05-02T21:27:35.490Z,3.10
2019-05-02T21:30:07.428Z,3.40
2019-05-02T21:35:52.240Z,3.63
2019-05-02T21:38:29.099Z,5.37
2019-05-02T21:41:11.597Z,4.30
2019-05-02T21:44:18.583Z,2.47
2019-05-02T21:46:52.858Z,6.20
2019-05-02T22:03:24.142Z,3.40
2019-05-02T22:05:52.560Z,4.13
2019-05-02T22:08:21.669Z,5.87
2019-05-02T22:10:52.011Z,4.07
2019-05-02T22:13:22.235Z,3.73
2019-05-02T22:16:12.763Z,4.33
2019-05-02T22:18:52.252Z,4.10
2019-05-02T22:21:22.769Z,1.50
2019-05-02T22:23:52.066Z,2.03
2019-05-02T22:26:22.089Z,1.67
2019-05-02T22:29:27.604Z,2.53
2019-05-02T22:31:55.270Z,4.07
2019-05-02T22:34:22.882Z,3.53
2019-05-02T22:36:53.979Z,2.07
2019-05-02T22:39:39.427Z,1.97
2019-05-02T22:42:07.103Z,3.53
2019-05-02T22:44:34.684Z,3.00
2019-05-02T22:47:02.391Z,4.57
2019-05-02T22:49:31.664Z,3.37
2019-05-02T22:51:59.445Z,2.20
2019-05-02T22:54:30.674Z,4.00
2019-05-02T22:56:56.566Z,3.90
2019-05-02T22:59:24.172Z,2.77
2019-05-02T23:01:52.793Z,3.80
2019-05-02T23:04:23.245Z,2.23
2019-05-02T23:06:50.436Z,2.13
2019-05-02T23:09:17.951Z,2.17
2019-05-02T23:11:45.482Z,1.43
2019-05-02T23:14:13.062Z,2.70
2019-05-02T23:16:42.706Z,2.13
2019-05-02T23:19:12.026Z,1.80
2019-05-02T23:21:39.522Z,2.37
2019-05-02T23:24:14.633Z,1.10
2019-05-02T23:27:00.063Z,1.73
2019-05-02T23:29:27.634Z,1.90
2019-05-02T23:31:55.203Z,3.33
2019-05-02T23:34:23.633Z,2.00
2019-05-02T23:36:52.160Z,3.03
2019-05-02T23:39:20.192Z,2.53
2019-05-02T23:41:47.769Z,2.23
2019-05-02T23:44:15.379Z,1.93
2019-05-02T23:46:43.000Z,1.27
2019-05-02T23:49:12.539Z,1.93
2019-05-02T23:51:40.068Z,2.93
2019-05-02T23:54:07.705Z,2.33
2019-05-02T23:56:35.353Z,2.10
2019-05-02T23:59:03.088Z,1.97
